Weather at Samsung Finance Plaza Heliport

Public forecast

Using degrees Celsius for public forecast. Weather courtesy of forecast.io.

Closest aviation weather report (METAR) to Samsung Finance Plaza Heliport

Closest report is Gimhae International Airport, 6.2 nm (11.5 km) WNW. Retrieved 2020/09/21 01:00 UTC (44 minutes ago):

RKPK 210100Z 32004KT CAVOK 21/12 Q1018

Closest aviation forecast (TAF) to Samsung Finance Plaza Heliport

Closest forecast is Gimhae International Airport, 6.2 nm (11.5 km) WNW. Retrieved 2020-09-21 00:00 UTC (2 hours ago):

TAF RKPK 202300Z 2100/2206 03006KT CAVOK TX26/2106Z TN14/2121Z BECMG 2104/2105 03010KT BECMG 2109/2110 03006KT